Time;durP1;ratioP1;P1;durP2;ratioP2;P2;SDS_P1;SDS_P2;PMS_P1;PMS_P2;Temp;Humidity;BMP_temperature;BMP_pressure;BME280_temperature;BME280_humidity;BME280_pressure;Samples;Min_cycle;Max_cycle;Signal;HPM_P1;HPM_P2
2023/06/27 00:01:04;;;;;;;2.95;2.70;;;;;;;;;;5054306;28;20052;-60
2023/06/27 00:03:33;;;;;;;2.78;2.58;;;;;;;;;;5054558;28;20418;-59
2023/06/27 00:06:00;;;;;;;3.97;2.90;;;;;;;;;;5054192;28;20025;-59
2023/06/27 00:08:31;;;;;;;2.88;2.67;;;;;;;;;;5036085;28;20052;-60
2023/06/27 00:10:56;;;;;;;3.15;2.80;;;;;;;;;;5054432;28;20104;-59
2023/06/27 00:13:22;;;;;;;2.95;2.65;;;;;;;;;;5054016;28;20108;-61
2023/06/27 00:15:52;;;;;;;2.75;2.47;;;;;;;;;;5054053;28;20417;-60
2023/06/27 00:21:32;;;;;;;3.30;2.95;;;;;;;;;;5054135;28;20035;-61
2023/06/27 00:23:58;;;;;;;3.53;3.00;;;;;;;;;;5054167;28;20029;-61
2023/06/27 00:26:24;;;;;;;4.43;3.08;;;;;;;;;;5054121;28;20044;-59
2023/06/27 00:28:49;;;;;;;3.33;2.85;;;;;;;;;;5053772;28;20465;-59
2023/06/27 00:31:15;;;;;;;3.30;2.60;;;;;;;;;;5053704;28;20474;-60
2023/06/27 00:33:40;;;;;;;4.97;3.05;;;;;;;;;;5053918;28;20032;-60
2023/06/27 00:36:06;;;;;;;2.97;2.67;;;;;;;;;;5053630;28;20025;-60
2023/06/27 00:38:32;;;;;;;4.88;2.95;;;;;;;;;;5053614;28;20103;-60
2023/06/27 00:40:58;;;;;;;3.08;2.80;;;;;;;;;;5053534;28;20029;-60
2023/06/27 00:43:23;;;;;;;3.13;2.63;;;;;;;;;;5053745;28;20444;-60
2023/06/27 00:45:52;;;;;;;4.15;2.53;;;;;;;;;;5053746;28;20116;-60
2023/06/27 00:48:19;;;;;;;3.47;2.90;;;;;;;;;;5053286;28;20470;-61
2023/06/27 00:50:45;;;;;;;3.38;2.97;;;;;;;;;;5053335;28;20040;-60
2023/06/27 00:53:11;;;;;;;3.92;3.30;;;;;;;;;;5053522;28;20082;-61
2023/06/27 00:55:39;;;;;;;2.60;2.40;;;;;;;;;;5053146;28;20021;-60
2023/06/27 00:58:06;;;;;;;3.50;2.70;;;;;;;;;;5053242;28;20099;-61
2023/06/27 01:00:31;;;;;;;3.38;3.05;;;;;;;;;;5053154;28;20120;-62
2023/06/27 01:02:57;;;;;;;2.90;2.55;;;;;;;;;;5035330;28;20116;-61
2023/06/27 01:05:24;;;;;;;3.42;3.03;;;;;;;;;;5053354;28;20025;-59
2023/06/27 01:07:56;;;;;;;3.20;2.63;;;;;;;;;;5053250;28;20025;-60
2023/06/27 01:10:29;;;;;;;3.35;3.05;;;;;;;;;;5052812;28;20486;-60
2023/06/27 01:13:08;;;;;;;5.07;2.90;;;;;;;;;;5052976;28;20033;-60
2023/06/27 01:15:35;;;;;;;2.77;2.47;;;;;;;;;;5052910;28;20017;-60
2023/06/27 01:18:01;;;;;;;3.38;2.83;;;;;;;;;;5053094;28;20021;-60
2023/06/27 01:20:27;;;;;;;3.03;2.72;;;;;;;;;;5052892;28;20382;-59
2023/06/27 01:23:45;;;;;;;2.83;2.63;;;;;;;;;;5052748;28;20504;-59
2023/06/27 01:26:12;;;;;;;3.63;3.00;;;;;;;;;;4952413;29;20069;-61
2023/06/27 01:28:37;;;;;;;3.78;3.13;;;;;;;;;;5032136;28;20596;-60
2023/06/27 01:31:03;;;;;;;3.67;2.90;;;;;;;;;;5052852;28;20048;-60
2023/06/27 01:33:34;;;;;;;3.47;2.75;;;;;;;;;;5052786;28;20079;-59
2023/06/27 01:36:18;;;;;;;3.13;2.83;;;;;;;;;;5052857;28;20021;-58
2023/06/27 01:38:49;;;;;;;3.55;2.88;;;;;;;;;;5052613;28;20026;-60
2023/06/27 01:41:20;;;;;;;4.05;2.97;;;;;;;;;;5053037;28;20033;-60
2023/06/27 01:43:47;;;;;;;3.40;2.85;;;;;;;;;;5052522;28;20131;-59
2023/06/27 01:46:13;;;;;;;3.25;2.95;;;;;;;;;;5052690;28;20055;-60
2023/06/27 01:48:43;;;;;;;3.83;2.88;;;;;;;;;;5052667;28;20071;-62
2023/06/27 01:51:09;;;;;;;3.92;2.95;;;;;;;;;;5051735;28;20017;-60
2023/06/27 01:53:36;;;;;;;3.95;3.03;;;;;;;;;;5052248;28;20075;-61
2023/06/27 01:56:02;;;;;;;4.68;2.80;;;;;;;;;;5052634;28;20436;-59
2023/06/27 01:58:28;;;;;;;3.40;2.60;;;;;;;;;;5052314;28;20021;-60
2023/06/27 02:00:53;;;;;;;6.22;2.95;;;;;;;;;;5052792;28;20108;-61
2023/06/27 02:03:19;;;;;;;3.95;2.63;;;;;;;;;;5052209;28;20482;-59
2023/06/27 02:05:44;;;;;;;3.10;2.80;;;;;;;;;;5052298;28;20028;-60
2023/06/27 02:08:10;;;;;;;3.08;2.78;;;;;;;;;;5052187;28;20060;-60
2023/06/27 02:10:35;;;;;;;3.20;2.70;;;;;;;;;;5051987;28;20068;-59
2023/06/27 02:13:03;;;;;;;3.25;2.95;;;;;;;;;;5052105;28;20070;-59
2023/06/27 02:15:29;;;;;;;2.88;2.60;;;;;;;;;;5052195;28;20112;-60
2023/06/27 02:17:55;;;;;;;3.50;2.80;;;;;;;;;;5052132;28;20067;-60
2023/06/27 02:20:20;;;;;;;5.47;2.83;;;;;;;;;;5052102;28;20021;-59
2023/06/27 02:22:46;;;;;;;2.95;2.65;;;;;;;;;;5052376;28;20029;-60
2023/06/27 02:25:11;;;;;;;5.68;3.00;;;;;;;;;;5052206;28;20021;-59
2023/06/27 02:27:36;;;;;;;3.00;2.70;;;;;;;;;;5052093;28;20021;-59
2023/06/27 02:30:02;;;;;;;3.88;2.90;;;;;;;;;;5052273;28;20158;-59
2023/06/27 02:35:21;;;;;;;4.07;2.63;;;;;;;;;;5052357;28;20028;-59
2023/06/27 02:37:46;;;;;;;3.08;2.72;;;;;;;;;;5052302;28;20025;-60
2023/06/27 02:40:12;;;;;;;4.32;2.92;;;;;;;;;;5052178;28;20130;-60
2023/06/27 02:42:37;;;;;;;3.05;2.40;;;;;;;;;;5051984;28;20385;-60
2023/06/27 02:45:03;;;;;;;2.92;2.72;;;;;;;;;;5051822;28;20021;-60
2023/06/27 02:47:29;;;;;;;2.78;2.58;;;;;;;;;;5052198;28;20032;-59
2023/06/27 02:49:54;;;;;;;4.20;2.50;;;;;;;;;;5051849;28;20489;-62
2023/06/27 02:52:20;;;;;;;2.90;2.60;;;;;;;;;;5051711;28;20071;-60
2023/06/27 02:54:48;;;;;;;4.40;3.35;;;;;;;;;;5052094;28;20382;-62
2023/06/27 02:57:13;;;;;;;4.88;2.70;;;;;;;;;;5051741;28;20048;-59
2023/06/27 02:59:39;;;;;;;3.35;2.80;;;;;;;;;;5051725;28;20029;-61
2023/06/27 03:02:05;;;;;;;3.10;2.70;;;;;;;;;;5052267;28;20029;-62
2023/06/27 03:04:30;;;;;;;3.58;2.72;;;;;;;;;;5055306;28;20018;-59
2023/06/27 03:06:56;;;;;;;3.35;2.60;;;;;;;;;;5055757;28;20100;-62
2023/06/27 03:09:21;;;;;;;3.80;2.88;;;;;;;;;;5054974;28;20375;-60
2023/06/27 03:11:47;;;;;;;3.67;2.97;;;;;;;;;;5055228;28;20029;-60
2023/06/27 03:14:17;;;;;;;2.72;2.53;;;;;;;;;;5055369;28;20041;-60
2023/06/27 03:16:43;;;;;;;3.00;2.65;;;;;;;;;;5055527;28;20025;-59
2023/06/27 03:19:08;;;;;;;5.15;3.00;;;;;;;;;;5055083;28;20058;-60
2023/06/27 03:21:34;;;;;;;2.80;2.55;;;;;;;;;;5055056;28;20017;-59
2023/06/27 03:23:59;;;;;;;3.17;2.60;;;;;;;;;;5055234;28;20025;-59
2023/06/27 03:26:28;;;;;;;3.30;2.58;;;;;;;;;;5055041;28;20386;-60
2023/06/27 03:28:56;;;;;;;3.00;2.60;;;;;;;;;;5055262;28;20027;-59
2023/06/27 03:31:21;;;;;;;2.85;2.58;;;;;;;;;;5055200;28;20029;-60
2023/06/27 03:33:47;;;;;;;3.00;2.70;;;;;;;;;;5054795;28;20048;-60
2023/06/27 03:36:13;;;;;;;4.38;2.60;;;;;;;;;;5054695;28;20049;-60
2023/06/27 03:38:38;;;;;;;3.13;2.70;;;;;;;;;;5054750;28;20036;-60
2023/06/27 03:41:04;;;;;;;3.40;2.70;;;;;;;;;;5054705;28;20099;-59
2023/06/27 03:43:41;;;;;;;2.80;2.53;;;;;;;;;;5054955;28;20025;-59
2023/06/27 03:46:20;;;;;;;3.72;2.95;;;;;;;;;;5036316;28;20029;-59
2023/06/27 03:48:56;;;;;;;3.35;2.83;;;;;;;;;;5054425;28;20064;-64
2023/06/27 03:51:38;;;;;;;4.45;3.20;;;;;;;;;;5054280;28;20033;-63
2023/06/27 03:54:12;;;;;;;3.25;2.95;;;;;;;;;;5054204;28;20033;-60
2023/06/27 03:56:42;;;;;;;3.33;2.80;;;;;;;;;;5054126;28;20029;-60
2023/06/27 03:59:36;;;;;;;;;;;;;;;;;;5054672;28;20426;-61
2023/06/27 04:02:02;;;;;;;3.10;2.60;;;;;;;;;;5054192;28;19920;-60
2023/06/27 04:04:27;;;;;;;3.20;2.90;;;;;;;;;;5054291;28;20033;-60
2023/06/27 04:06:53;;;;;;;2.95;2.70;;;;;;;;;;5054163;28;20028;-60
2023/06/27 04:09:19;;;;;;;6.13;2.90;;;;;;;;;;5054064;28;20065;-60
2023/06/27 04:11:45;;;;;;;2.90;2.60;;;;;;;;;;5054467;28;20425;-60
2023/06/27 04:14:10;;;;;;;2.90;2.60;;;;;;;;;;5053277;28;20033;-60
2023/06/27 04:16:36;;;;;;;2.70;2.50;;;;;;;;;;5054601;28;20040;-61
2023/06/27 04:19:01;;;;;;;2.80;2.60;;;;;;;;;;5054229;28;20017;-61
2023/06/27 04:21:27;;;;;;;4.53;2.70;;;;;;;;;;5053880;28;20377;-60
2023/06/27 04:23:54;;;;;;;3.35;2.63;;;;;;;;;;5053921;28;20036;-60
2023/06/27 04:26:19;;;;;;;4.13;2.50;;;;;;;;;;5054028;28;20028;-59
2023/06/27 04:28:47;;;;;;;3.20;2.90;;;;;;;;;;5054005;28;20365;-61
2023/06/27 04:31:13;;;;;;;3.17;2.70;;;;;;;;;;5053725;28;20025;-61
2023/06/27 04:33:42;;;;;;;2.65;2.45;;;;;;;;;;5053469;28;20033;-60
2023/06/27 04:36:15;;;;;;;4.93;3.08;;;;;;;;;;5053953;28;20453;-61
2023/06/27 04:39:11;;;;;;;3.55;2.83;;;;;;;;;;5053577;28;20025;-61
2023/06/27 04:41:36;;;;;;;3.47;2.70;;;;;;;;;;5053593;28;20032;-62
2023/06/27 04:44:02;;;;;;;4.00;3.00;;;;;;;;;;5053426;28;20025;-61
2023/06/27 04:46:28;;;;;;;2.75;2.55;;;;;;;;;;5053669;28;20172;-60
2023/06/27 04:48:58;;;;;;;3.75;2.58;;;;;;;;;;5053716;28;20025;-62
2023/06/27 04:51:29;;;;;;;3.53;2.70;;;;;;;;;;5053398;28;20021;-62
2023/06/27 04:53:55;;;;;;;3.50;2.80;;;;;;;;;;5053045;28;20294;-63
2023/06/27 04:56:22;;;;;;;2.70;2.50;;;;;;;;;;5050409;28;20075;-61
2023/06/27 04:58:48;;;;;;;3.33;2.70;;;;;;;;;;5053163;28;20048;-62
2023/06/27 05:01:14;;;;;;;4.43;2.70;;;;;;;;;;5053326;28;20493;-62
2023/06/27 05:03:40;;;;;;;3.72;2.63;;;;;;;;;;5052910;28;20047;-61
2023/06/27 05:06:05;;;;;;;3.65;2.70;;;;;;;;;;5052862;28;20039;-61
2023/06/27 05:08:32;;;;;;;3.58;2.80;;;;;;;;;;5052946;28;20025;-61
2023/06/27 05:10:58;;;;;;;2.72;2.53;;;;;;;;;;5052967;28;20100;-60
2023/06/27 05:13:23;;;;;;;3.47;2.53;;;;;;;;;;5053006;28;20116;-60
2023/06/27 05:15:49;;;;;;;3.25;2.70;;;;;;;;;;5053079;28;20025;-60
2023/06/27 05:18:15;;;;;;;3.42;2.75;;;;;;;;;;5052799;28;20673;-60
2023/06/27 05:20:44;;;;;;;2.70;2.50;;;;;;;;;;5052978;28;20021;-60
2023/06/27 05:23:10;;;;;;;3.17;2.88;;;;;;;;;;5052277;28;20021;-60
2023/06/27 05:25:36;;;;;;;3.08;2.78;;;;;;;;;;5051731;28;20029;-60
2023/06/27 05:28:02;;;;;;;2.70;2.50;;;;;;;;;;5052202;28;20025;-60
2023/06/27 05:30:29;;;;;;;3.30;3.00;;;;;;;;;;5052378;28;20035;-63
2023/06/27 05:33:03;;;;;;;2.83;2.63;;;;;;;;;;5052236;28;20025;-60
2023/06/27 05:35:29;;;;;;;3.00;2.70;;;;;;;;;;5052256;28;20474;-64
2023/06/27 05:37:54;;;;;;;2.97;2.67;;;;;;;;;;5052470;28;20074;-60
2023/06/27 05:40:20;;;;;;;3.95;2.53;;;;;;;;;;5051959;28;20378;-61
2023/06/27 05:42:45;;;;;;;3.17;2.85;;;;;;;;;;5051296;28;20044;-61
2023/06/27 05:45:11;;;;;;;3.30;2.97;;;;;;;;;;5052493;28;20032;-60
2023/06/27 05:47:36;;;;;;;3.63;2.83;;;;;;;;;;5052272;28;20017;-61
2023/06/27 05:50:02;;;;;;;2.72;2.53;;;;;;;;;;5051331;28;20035;-61
2023/06/27 05:52:31;;;;;;;2.83;2.60;;;;;;;;;;5052473;28;20037;-63
2023/06/27 05:54:58;;;;;;;5.13;3.00;;;;;;;;;;5052198;28;20592;-59
2023/06/27 05:57:23;;;;;;;4.32;2.70;;;;;;;;;;5032512;28;20120;-60
2023/06/27 05:59:50;;;;;;;2.92;2.70;;;;;;;;;;5050498;28;20112;-60
2023/06/27 06:02:15;;;;;;;3.70;2.80;;;;;;;;;;5050522;28;20395;-59
2023/06/27 06:04:41;;;;;;;3.10;2.75;;;;;;;;;;5050970;28;20021;-60
2023/06/27 06:07:06;;;;;;;3.17;2.88;;;;;;;;;;5051750;28;20025;-59
2023/06/27 06:09:32;;;;;;;3.63;2.80;;;;;;;;;;5051676;28;20081;-59
2023/06/27 06:11:58;;;;;;;2.83;2.28;;;;;;;;;;5052039;28;20033;-59
2023/06/27 06:14:24;;;;;;;2.75;2.53;;;;;;;;;;5051992;28;20033;-59
2023/06/27 06:16:49;;;;;;;4.45;2.50;;;;;;;;;;5052158;28;20087;-59
2023/06/27 06:19:15;;;;;;;3.17;2.80;;;;;;;;;;5052037;28;20044;-59
2023/06/27 06:21:41;;;;;;;3.08;2.80;;;;;;;;;;5051533;28;20040;-60
2023/06/27 06:24:10;;;;;;;4.13;2.65;;;;;;;;;;5051648;28;20441;-58
2023/06/27 06:26:37;;;;;;;2.72;2.53;;;;;;;;;;5052158;28;20078;-60
2023/06/27 06:29:08;;;;;;;5.38;2.95;;;;;;;;;;5051878;28;20446;-59
2023/06/27 06:31:34;;;;;;;3.33;3.00;;;;;;;;;;5051867;28;20057;-60
2023/06/27 06:33:59;;;;;;;3.15;2.53;;;;;;;;;;5050436;28;20068;-60
2023/06/27 06:36:25;;;;;;;3.85;2.58;;;;;;;;;;5046463;28;20466;-61
2023/06/27 06:38:50;;;;;;;4.07;2.70;;;;;;;;;;5054964;28;20021;-60
2023/06/27 06:41:18;;;;;;;5.40;2.47;;;;;;;;;;5055612;28;20056;-61
2023/06/27 06:43:43;;;;;;;5.35;2.47;;;;;;;;;;5055362;28;20033;-59
2023/06/27 06:46:09;;;;;;;5.13;3.03;;;;;;;;;;5055344;28;20032;-60
2023/06/27 06:48:36;;;;;;;3.15;2.67;;;;;;;;;;5055269;28;20021;-59
2023/06/27 06:51:02;;;;;;;5.03;2.50;;;;;;;;;;5054964;28;20382;-60
2023/06/27 06:53:27;;;;;;;4.53;2.50;;;;;;;;;;5054761;28;20048;-59
2023/06/27 06:55:53;;;;;;;4.82;2.70;;;;;;;;;;5054630;28;20017;-60
2023/06/27 06:58:18;;;;;;;5.30;2.70;;;;;;;;;;5053732;28;20029;-60
2023/06/27 07:00:44;;;;;;;4.22;2.60;;;;;;;;;;5053736;28;20037;-60
2023/06/27 07:03:09;;;;;;;5.97;2.58;;;;;;;;;;5053981;28;20037;-60
2023/06/27 07:05:36;;;;;;;4.70;3.03;;;;;;;;;;5053500;28;20466;-59
2023/06/27 07:08:05;;;;;;;4.20;2.70;;;;;;;;;;5053568;28;20029;-59
2023/06/27 07:10:31;;;;;;;7.00;3.07;;;;;;;;;;5053443;28;20060;-59
2023/06/27 07:12:57;;;;;;;7.15;2.80;;;;;;;;;;5053456;28;20068;-59
2023/06/27 07:15:23;;;;;;;3.05;2.70;;;;;;;;;;5051612;28;20036;-59
2023/06/27 07:17:53;;;;;;;4.03;2.70;;;;;;;;;;5035350;28;20036;-59
2023/06/27 07:20:20;;;;;;;3.28;2.58;;;;;;;;;;5051140;28;20029;-59
2023/06/27 07:22:54;;;;;;;3.65;2.70;;;;;;;;;;5053386;28;20037;-59
2023/06/27 07:25:20;;;;;;;4.05;2.90;;;;;;;;;;5053242;28;20033;-59
2023/06/27 07:27:45;;;;;;;2.50;2.30;;;;;;;;;;5053439;28;20025;-59
2023/06/27 07:30:12;;;;;;;6.50;2.80;;;;;;;;;;5052434;28;20068;-58
2023/06/27 07:32:38;;;;;;;6.95;3.08;;;;;;;;;;5050257;28;20560;-58
2023/06/27 07:35:04;;;;;;;4.75;2.90;;;;;;;;;;5053219;28;20028;-58
2023/06/27 07:37:30;;;;;;;4.03;2.72;;;;;;;;;;5053457;28;20540;-60
2023/06/27 07:39:56;;;;;;;4.10;2.95;;;;;;;;;;5053199;28;20041;-59
2023/06/27 07:42:21;;;;;;;3.35;2.60;;;;;;;;;;5053006;28;20828;-58
2023/06/27 07:44:47;;;;;;;3.22;2.65;;;;;;;;;;5050765;28;20087;-60
2023/06/27 07:47:12;;;;;;;22.02;2.95;;;;;;;;;;5048050;28;20021;-59
2023/06/27 07:49:38;;;;;;;4.97;3.42;;;;;;;;;;5047939;28;20033;-59
2023/06/27 07:52:07;;;;;;;5.82;3.03;;;;;;;;;;5051087;28;20453;-59
2023/06/27 07:54:33;;;;;;;3.00;2.70;;;;;;;;;;5052177;28;20025;-60
2023/06/27 07:56:59;;;;;;;3.58;2.78;;;;;;;;;;5052401;28;20037;-61
2023/06/27 07:59:24;;;;;;;4.30;2.95;;;;;;;;;;5049554;28;20033;-60
2023/06/27 08:01:50;;;;;;;4.18;2.88;;;;;;;;;;5051323;28;20021;-59
2023/06/27 08:04:15;;;;;;;5.32;2.60;;;;;;;;;;5051124;28;20390;-58
2023/06/27 08:06:42;;;;;;;4.38;2.70;;;;;;;;;;5050614;28;20515;-59
2023/06/27 08:09:08;;;;;;;4.28;2.67;;;;;;;;;;5050748;28;20497;-59
2023/06/27 08:11:34;;;;;;;3.63;2.67;;;;;;;;;;5052526;28;20035;-59
2023/06/27 08:13:59;;;;;;;6.43;2.75;;;;;;;;;;5051072;28;20048;-61
2023/06/27 08:16:25;;;;;;;4.43;2.75;;;;;;;;;;5049117;28;20475;-61
2023/06/27 08:18:50;;;;;;;6.32;3.00;;;;;;;;;;5050185;28;20036;-59
2023/06/27 08:21:16;;;;;;;5.32;2.78;;;;;;;;;;5051831;28;20120;-59
2023/06/27 08:23:42;;;;;;;5.32;2.90;;;;;;;;;;5051690;28;20021;-59
2023/06/27 08:26:13;;;;;;;5.00;3.15;;;;;;;;;;5050898;28;20440;-64
2023/06/27 08:28:38;;;;;;;5.00;2.90;;;;;;;;;;5050482;28;20067;-60
2023/06/27 08:31:04;;;;;;;3.10;2.80;;;;;;;;;;5052240;28;20021;-59
2023/06/27 08:33:30;;;;;;;5.57;3.10;;;;;;;;;;5051982;28;20057;-59
2023/06/27 08:35:55;;;;;;;3.92;2.90;;;;;;;;;;5049301;28;20094;-59
2023/06/27 08:38:21;;;;;;;4.88;2.72;;;;;;;;;;5051227;28;20025;-59
2023/06/27 08:40:47;;;;;;;4.05;2.78;;;;;;;;;;5052287;28;20029;-58
2023/06/27 08:43:12;;;;;;;3.45;2.70;;;;;;;;;;5051497;28;20025;-58
2023/06/27 08:45:38;;;;;;;4.70;2.92;;;;;;;;;;5049926;28;20413;-59
2023/06/27 08:48:09;;;;;;;3.58;3.10;;;;;;;;;;5052066;28;20025;-59
2023/06/27 08:50:42;;;;;;;4.35;2.92;;;;;;;;;;5048534;28;20100;-62
2023/06/27 08:53:17;;;;;;;6.97;3.05;;;;;;;;;;5049151;28;20444;-59
2023/06/27 08:55:54;;;;;;;3.53;2.80;;;;;;;;;;5051253;28;20028;-59
2023/06/27 08:58:26;;;;;;;3.42;2.70;;;;;;;;;;5050199;28;20036;-61
2023/06/27 09:00:53;;;;;;;3.88;2.80;;;;;;;;;;5049341;28;20540;-59
2023/06/27 09:03:20;;;;;;;3.22;2.90;;;;;;;;;;5049846;28;20092;-58
2023/06/27 09:05:47;;;;;;;5.90;3.15;;;;;;;;;;5049981;28;20393;-58
2023/06/27 09:08:13;;;;;;;2.95;2.70;;;;;;;;;;5050537;28;20098;-62
2023/06/27 09:10:45;;;;;;;2.92;2.60;;;;;;;;;;5048440;28;20128;-60
2023/06/27 09:24:12;;;;;;;3.20;2.90;;;;;;;;;;5049478;28;20898;-59
2023/06/27 09:26:37;;;;;;;4.25;2.78;;;;;;;;;;5050261;28;20052;-61
2023/06/27 09:29:03;;;;;;;3.13;2.80;;;;;;;;;;5051073;28;20025;-60
2023/06/27 09:31:30;;;;;;;4.90;3.03;;;;;;;;;;5051056;28;20029;-60
2023/06/27 09:34:06;;;;;;;4.10;2.88;;;;;;;;;;5050242;28;20021;-60
2023/06/27 09:36:41;;;;;;;3.28;2.97;;;;;;;;;;5049768;28;20030;-60
2023/06/27 09:39:08;;;;;;;3.95;2.92;;;;;;;;;;5049975;28;20026;-59
2023/06/27 09:41:45;;;;;;;5.63;3.33;;;;;;;;;;5050287;28;20390;-62
2023/06/27 09:44:12;;;;;;;3.00;2.70;;;;;;;;;;5033835;28;20022;-60
2023/06/27 09:46:38;;;;;;;3.10;2.78;;;;;;;;;;5033129;28;20037;-59
2023/06/27 09:49:06;;;;;;;4.00;2.63;;;;;;;;;;5029189;28;20029;-59
2023/06/27 09:51:32;;;;;;;3.22;2.70;;;;;;;;;;5029016;28;20030;-59
2023/06/27 09:53:58;;;;;;;12.30;3.05;;;;;;;;;;5028582;28;20030;-59
2023/06/27 09:56:31;;;;;;;7.95;2.90;;;;;;;;;;5029151;28;20541;-59
2023/06/27 09:59:11;;;;;;;7.85;2.97;;;;;;;;;;5029276;28;20036;-60
2023/06/27 10:01:38;;;;;;;8.35;3.00;;;;;;;;;;5029004;28;20034;-58
2023/06/27 10:04:05;;;;;;;12.25;3.70;;;;;;;;;;5028849;28;20034;-59
2023/06/27 10:06:31;;;;;;;5.60;3.17;;;;;;;;;;5026911;28;20502;-59
2023/06/27 10:08:57;;;;;;;3.47;2.72;;;;;;;;;;5025947;28;20048;-59
2023/06/27 10:11:24;;;;;;;8.35;3.30;;;;;;;;;;5011136;28;20044;-58
2023/06/27 10:13:50;;;;;;;7.88;3.35;;;;;;;;;;5028992;28;20029;-57
2023/06/27 10:16:18;;;;;;;5.47;3.03;;;;;;;;;;5028639;28;20036;-58
2023/06/27 10:18:44;;;;;;;5.25;3.22;;;;;;;;;;5026796;28;20033;-59
2023/06/27 10:21:11;;;;;;;5.60;2.90;;;;;;;;;;5028844;28;20033;-58
2023/06/27 10:23:40;;;;;;;8.13;3.70;;;;;;;;;;5023144;28;20129;-59
2023/06/27 10:26:08;;;;;;;6.55;3.63;;;;;;;;;;5015376;28;20022;-60
2023/06/27 10:28:33;;;;;;;8.27;2.90;;;;;;;;;;5011895;28;20026;-59
2023/06/27 10:30:59;;;;;;;17.33;3.42;;;;;;;;;;4995691;28;20434;-59
2023/06/27 10:33:31;;;;;;;7.97;3.00;;;;;;;;;;4995369;28;20380;-59
2023/06/27 10:36:00;;;;;;;8.57;3.70;;;;;;;;;;4995204;28;20022;-59
2023/06/27 10:38:36;;;;;;;11.05;3.03;;;;;;;;;;5000432;28;20490;-58
2023/06/27 10:41:04;;;;;;;10.25;3.00;;;;;;;;;;5021059;28;20440;-59
2023/06/27 10:43:39;;;;;;;6.93;3.20;;;;;;;;;;5024120;28;20033;-59
2023/06/27 10:46:10;;;;;;;7.85;3.75;;;;;;;;;;5014323;28;20091;-62
2023/06/27 10:48:49;;;;;;;5.82;3.15;;;;;;;;;;5024981;28;20061;-61
2023/06/27 10:51:36;;;;;;;6.22;3.63;;;;;;;;;;5024474;28;20026;-59
2023/06/27 10:54:07;;;;;;;6.18;3.17;;;;;;;;;;5022537;28;20057;-58
2023/06/27 10:56:37;;;;;;;7.40;3.47;;;;;;;;;;5020991;28;20026;-59
2023/06/27 10:59:04;;;;;;;;;;;;;;;;;;5015706;28;20030;-61
2023/06/27 11:01:34;;;;;;;7.03;2.83;;;;;;;;;;5014934;28;20329;-60
2023/06/27 11:04:14;;;;;;;7.63;3.40;;;;;;;;;;5014873;28;20033;-60
2023/06/27 11:06:41;;;;;;;10.57;3.60;;;;;;;;;;5014568;28;20053;-61
2023/06/27 11:09:10;;;;;;;4.72;3.38;;;;;;;;;;5014459;28;20028;-62
2023/06/27 11:11:37;;;;;;;15.70;3.80;;;;;;;;;;4996832;28;20022;-60
2023/06/27 11:14:07;;;;;;;13.95;3.70;;;;;;;;;;5014491;28;20030;-59
2023/06/27 11:16:34;;;;;;;9.75;3.00;;;;;;;;;;5014330;28;20030;-60
2023/06/27 11:19:01;;;;;;;9.20;3.38;;;;;;;;;;4998745;28;20026;-60
2023/06/27 11:21:27;;;;;;;12.77;3.67;;;;;;;;;;5022459;28;20037;-59
2023/06/27 11:23:57;;;;;;;10.60;3.90;;;;;;;;;;5021582;28;20038;-59
2023/06/27 11:26:24;;;;;;;12.25;3.53;;;;;;;;;;5028537;28;20160;-63
2023/06/27 11:28:49;;;;;;;15.98;3.60;;;;;;;;;;5033908;28;20500;-63
2023/06/27 11:31:15;;;;;;;8.82;4.03;;;;;;;;;;5033874;28;20025;-59
2023/06/27 11:33:41;;;;;;;11.80;3.83;;;;;;;;;;5033722;28;20029;-59
2023/06/27 11:36:08;;;;;;;8.23;3.10;;;;;;;;;;5013487;28;20037;-59
2023/06/27 11:38:34;;;;;;;7.40;3.45;;;;;;;;;;5023749;28;20096;-59
2023/06/27 11:41:01;;;;;;;10.82;4.25;;;;;;;;;;5024106;28;20109;-60
2023/06/27 11:43:27;;;;;;;6.72;3.22;;;;;;;;;;5030594;28;20025;-59
2023/06/27 11:45:57;;;;;;;7.97;3.60;;;;;;;;;;5019930;28;20029;-64
2023/06/27 11:48:23;;;;;;;9.93;3.58;;;;;;;;;;5014052;28;20026;-59
2023/06/27 11:51:04;;;;;;;9.65;3.80;;;;;;;;;;5014020;28;20675;-62
2023/06/27 11:53:30;;;;;;;11.05;3.72;;;;;;;;;;5013606;28;20032;-65
2023/06/27 11:55:56;;;;;;;6.50;3.50;;;;;;;;;;5011513;28;20120;-61
2023/06/27 11:58:30;;;;;;;11.00;4.03;;;;;;;;;;4991569;28;20030;-60
2023/06/27 12:00:59;;;;;;;8.63;3.65;;;;;;;;;;5011877;28;20022;-60
2023/06/27 12:03:35;;;;;;;11.55;4.50;;;;;;;;;;5019012;28;20022;-59
2023/06/27 12:06:01;;;;;;;7.50;4.60;;;;;;;;;;5033139;28;20033;-59
2023/06/27 12:08:34;;;;;;;9.65;4.55;;;;;;;;;;5033374;28;20035;-60
2023/06/27 12:11:02;;;;;;;9.23;5.05;;;;;;;;;;5024254;28;20041;-58
2023/06/27 12:13:37;;;;;;;12.20;5.95;;;;;;;;;;5032874;28;20076;-61
2023/06/27 12:16:03;;;;;;;18.67;6.57;;;;;;;;;;5028315;28;20030;-63
2023/06/27 12:18:30;;;;;;;26.63;6.85;;;;;;;;;;5013476;28;20053;-59
2023/06/27 12:20:57;;;;;;;32.72;13.10;;;;;;;;;;5013076;28;20494;-62
2023/06/27 12:23:26;;;;;;;18.67;11.68;;;;;;;;;;5012826;28;20053;-64
2023/06/27 12:25:52;;;;;;;15.68;9.82;;;;;;;;;;5019558;28;20109;-60
2023/06/27 12:28:17;;;;;;;14.13;7.93;;;;;;;;;;5022621;28;20554;-64
2023/06/27 12:30:44;;;;;;;15.32;7.82;;;;;;;;;;5023206;28;20061;-60
2023/06/27 12:33:10;;;;;;;13.80;7.15;;;;;;;;;;5019005;28;20056;-65
2023/06/27 12:35:37;;;;;;;12.48;7.38;;;;;;;;;;5022403;28;20030;-61
2023/06/27 12:38:02;;;;;;;13.90;6.72;;;;;;;;;;5020930;28;20022;-68
2023/06/27 12:40:28;;;;;;;15.52;7.28;;;;;;;;;;5012931;28;20067;-71
2023/06/27 12:42:54;;;;;;;14.43;6.60;;;;;;;;;;5013037;28;20037;-63
2023/06/27 12:45:20;;;;;;;9.68;6.53;;;;;;;;;;5013048;28;20127;-64
2023/06/27 12:47:46;;;;;;;13.52;6.88;;;;;;;;;;5012612;28;20164;-65
2023/06/27 12:50:17;;;;;;;11.13;6.72;;;;;;;;;;5028495;28;20493;-62
2023/06/27 12:52:47;;;;;;;17.30;6.80;;;;;;;;;;5022426;28;20037;-63
2023/06/27 12:55:15;;;;;;;;;;;;;;;;;;5005732;28;21126;-66
2023/06/27 12:57:41;;;;;;;10.75;6.70;;;;;;;;;;5021339;28;19913;-65
2023/06/27 13:00:09;;;;;;;8.63;6.45;;;;;;;;;;5026829;28;20029;-65
2023/06/27 13:02:38;;;;;;;13.02;6.90;;;;;;;;;;4998050;28;20510;-70
2023/06/27 13:05:05;;;;;;;12.73;6.67;;;;;;;;;;4993007;28;20030;-68
2023/06/27 13:07:31;;;;;;;9.95;6.45;;;;;;;;;;4993298;28;20026;-67
2023/06/27 13:09:56;;;;;;;23.25;7.22;;;;;;;;;;4992977;28;20026;-61
2023/06/27 13:12:22;;;;;;;17.67;9.85;;;;;;;;;;5010677;28;20035;-66
2023/06/27 13:14:48;;;;;;;16.15;10.52;;;;;;;;;;5012534;28;20458;-64
2023/06/27 13:17:17;;;;;;;16.13;7.45;;;;;;;;;;4994841;28;20026;-64
2023/06/27 13:19:42;;;;;;;11.52;7.10;;;;;;;;;;4994979;28;20034;-69
2023/06/27 13:22:08;;;;;;;10.02;7.10;;;;;;;;;;5012234;28;20395;-62
2023/06/27 13:24:36;;;;;;;15.18;7.22;;;;;;;;;;5010375;28;20046;-68
2023/06/27 13:27:03;;;;;;;9.18;6.55;;;;;;;;;;5012556;28;20030;-63
2023/06/27 13:29:29;;;;;;;14.27;7.15;;;;;;;;;;5011524;28;20033;-70
2023/06/27 13:31:55;;;;;;;15.43;8.35;;;;;;;;;;5021783;28;20021;-64
2023/06/27 13:34:21;;;;;;;7.95;7.03;;;;;;;;;;5027661;28;20029;-61
2023/06/27 13:36:47;;;;;;;13.93;7.80;;;;;;;;;;5031903;28;20053;-60
2023/06/27 13:39:14;;;;;;;10.73;7.38;;;;;;;;;;5017688;28;20026;-60
2023/06/27 13:41:40;;;;;;;11.05;7.55;;;;;;;;;;5018587;28;20193;-61
2023/06/27 13:44:05;;;;;;;17.85;7.88;;;;;;;;;;5021491;28;20138;-64
2023/06/27 13:46:31;;;;;;;11.70;7.55;;;;;;;;;;5018579;28;20619;-61
2023/06/27 13:48:57;;;;;;;9.90;7.20;;;;;;;;;;5021218;28;20014;-60
2023/06/27 13:51:23;;;;;;;14.77;7.82;;;;;;;;;;5021216;28;20026;-64
2023/06/27 13:53:49;;;;;;;14.38;8.02;;;;;;;;;;5019784;28;20025;-64
2023/06/27 13:56:14;;;;;;;8.35;7.38;;;;;;;;;;5021550;28;20048;-62
2023/06/27 13:58:40;;;;;;;12.55;7.90;;;;;;;;;;5021572;28;20493;-62
2023/06/27 14:01:05;;;;;;;9.40;7.70;;;;;;;;;;5021436;28;20036;-61
2023/06/27 14:03:31;;;;;;;14.00;7.45;;;;;;;;;;5013893;28;20074;-68
2023/06/27 14:05:57;;;;;;;12.55;7.28;;;;;;;;;;5016143;28;20042;-66
2023/06/27 14:08:22;;;;;;;24.73;7.53;;;;;;;;;;5020717;28;20371;-69
2023/06/27 14:10:49;;;;;;;13.02;7.35;;;;;;;;;;5022793;28;20076;-66
2023/06/27 14:13:14;;;;;;;9.93;7.88;;;;;;;;;;5029087;28;20116;-62
2023/06/27 14:15:40;;;;;;;14.27;7.45;;;;;;;;;;5035285;28;20113;-67
2023/06/27 14:18:09;;;;;;;12.00;7.43;;;;;;;;;;5035163;28;20108;-62
2023/06/27 14:20:35;;;;;;;31.50;11.73;;;;;;;;;;5035414;28;20390;-62
2023/06/27 14:23:04;;;;;;;13.80;7.80;;;;;;;;;;5034703;28;20041;-63
2023/06/27 14:25:30;;;;;;;16.27;7.70;;;;;;;;;;5034873;28;20033;-64
2023/06/27 14:27:56;;;;;;;30.92;8.45;;;;;;;;;;5034889;28;20057;-62
2023/06/27 14:30:22;;;;;;;18.88;9.10;;;;;;;;;;5035110;28;20490;-66
2023/06/27 14:32:49;;;;;;;23.85;7.85;;;;;;;;;;5034701;28;20504;-61
2023/06/27 14:35:16;;;;;;;16.67;8.50;;;;;;;;;;5035104;28;20029;-62
2023/06/27 14:37:41;;;;;;;16.52;7.75;;;;;;;;;;5013288;28;20034;-62
2023/06/27 14:40:12;;;;;;;19.55;8.82;;;;;;;;;;5015054;28;20429;-63
2023/06/27 14:42:38;;;;;;;39.10;13.95;;;;;;;;;;5015033;28;20037;-64
2023/06/27 14:45:04;;;;;;;18.77;8.75;;;;;;;;;;4997379;28;20030;-65
2023/06/27 14:47:34;;;;;;;18.05;8.93;;;;;;;;;;5013890;28;20023;-65
2023/06/27 14:50:03;;;;;;;14.52;8.55;;;;;;;;;;5015140;28;20026;-64
2023/06/27 14:52:29;;;;;;;15.65;7.57;;;;;;;;;;5014950;28;20034;-66
2023/06/27 14:54:54;;;;;;;12.02;7.65;;;;;;;;;;5014808;28;20629;-66
2023/06/27 14:57:21;;;;;;;20.42;9.80;;;;;;;;;;5013261;28;20032;-66
2023/06/27 14:59:47;;;;;;;14.98;8.40;;;;;;;;;;5014571;28;20053;-66